sensor_id;sensor_type;location;lat;lon;timestamp;P1;durP1;ratioP1;P2;durP2;ratioP2
5900;SDS011;2976;49.764;9.796;2023-05-23T00:00:23;15.17;;;11.37;;
5900;SDS011;2976;49.764;9.796;2023-05-23T00:02:49;14.20;;;10.30;;
5900;SDS011;2976;49.764;9.796;2023-05-23T00:05:18;14.23;;;10.43;;
5900;SDS011;2976;49.764;9.796;2023-05-23T00:07:43;18.93;;;10.63;;
5900;SDS011;2976;49.764;9.796;2023-05-23T00:10:10;14.27;;;11.30;;
5900;SDS011;2976;49.764;9.796;2023-05-23T00:12:36;14.23;;;11.67;;
5900;SDS011;2976;49.764;9.796;2023-05-23T00:15:06;12.33;;;10.27;;
5900;SDS011;2976;49.764;9.796;2023-05-23T00:17:33;16.50;;;11.90;;
5900;SDS011;2976;49.764;9.796;2023-05-23T00:20:02;17.30;;;11.80;;
5900;SDS011;2976;49.764;9.796;2023-05-23T00:22:27;16.67;;;12.93;;
5900;SDS011;2976;49.764;9.796;2023-05-23T00:24:53;18.53;;;12.87;;
5900;SDS011;2976;49.764;9.796;2023-05-23T00:27:21;17.20;;;12.73;;
5900;SDS011;2976;49.764;9.796;2023-05-23T00:29:47;15.23;;;12.73;;
5900;SDS011;2976;49.764;9.796;2023-05-23T00:32:13;22.40;;;14.70;;
5900;SDS011;2976;49.764;9.796;2023-05-23T00:34:38;18.60;;;13.10;;
5900;SDS011;2976;49.764;9.796;2023-05-23T00:37:04;16.20;;;13.70;;
5900;SDS011;2976;49.764;9.796;2023-05-23T00:39:29;17.97;;;13.23;;
5900;SDS011;2976;49.764;9.796;2023-05-23T00:41:55;17.40;;;13.00;;
5900;SDS011;2976;49.764;9.796;2023-05-23T00:44:21;21.33;;;13.90;;
5900;SDS011;2976;49.764;9.796;2023-05-23T00:46:48;18.90;;;13.73;;
5900;SDS011;2976;49.764;9.796;2023-05-23T00:49:17;18.40;;;14.30;;
5900;SDS011;2976;49.764;9.796;2023-05-23T00:51:44;31.03;;;15.57;;
5900;SDS011;2976;49.764;9.796;2023-05-23T00:54:10;20.27;;;14.50;;
5900;SDS011;2976;49.764;9.796;2023-05-23T00:56:37;22.73;;;16.90;;
5900;SDS011;2976;49.764;9.796;2023-05-23T00:59:03;29.60;;;17.67;;
5900;SDS011;2976;49.764;9.796;2023-05-23T01:01:30;25.50;;;18.10;;
5900;SDS011;2976;49.764;9.796;2023-05-23T01:03:57;23.93;;;17.80;;
5900;SDS011;2976;49.764;9.796;2023-05-23T01:06:22;25.60;;;16.60;;
5900;SDS011;2976;49.764;9.796;2023-05-23T01:08:48;24.77;;;19.03;;
5900;SDS011;2976;49.764;9.796;2023-05-23T01:11:18;21.73;;;17.03;;
5900;SDS011;2976;49.764;9.796;2023-05-23T01:13:58;24.87;;;16.80;;
5900;SDS011;2976;49.764;9.796;2023-05-23T01:16:44;29.50;;;19.97;;
5900;SDS011;2976;49.764;9.796;2023-05-23T01:22:20;27.97;;;19.57;;
5900;SDS011;2976;49.764;9.796;2023-05-23T01:25:22;30.83;;;19.70;;
5900;SDS011;2976;49.764;9.796;2023-05-23T01:27:59;33.13;;;21.20;;
5900;SDS011;2976;49.764;9.796;2023-05-23T01:30:27;23.70;;;19.30;;
5900;SDS011;2976;49.764;9.796;2023-05-23T01:32:56;28.20;;;20.40;;
5900;SDS011;2976;49.764;9.796;2023-05-23T01:35:26;25.20;;;19.90;;
5900;SDS011;2976;49.764;9.796;2023-05-23T01:37:52;31.70;;;20.60;;
5900;SDS011;2976;49.764;9.796;2023-05-23T01:40:18;27.67;;;20.83;;
5900;SDS011;2976;49.764;9.796;2023-05-23T01:42:45;26.77;;;20.63;;
5900;SDS011;2976;49.764;9.796;2023-05-23T01:45:11;27.83;;;20.83;;
5900;SDS011;2976;49.764;9.796;2023-05-23T01:47:37;32.50;;;20.60;;
5900;SDS011;2976;49.764;9.796;2023-05-23T01:50:05;28.40;;;20.03;;
5900;SDS011;2976;49.764;9.796;2023-05-23T01:52:32;26.23;;;18.10;;
5900;SDS011;2976;49.764;9.796;2023-05-23T01:54:58;26.53;;;19.27;;
5900;SDS011;2976;49.764;9.796;2023-05-23T01:57:24;27.23;;;19.80;;
5900;SDS011;2976;49.764;9.796;2023-05-23T01:59:53;32.23;;;20.47;;
5900;SDS011;2976;49.764;9.796;2023-05-23T02:02:18;29.67;;;18.20;;
5900;SDS011;2976;49.764;9.796;2023-05-23T02:04:44;25.73;;;19.80;;
5900;SDS011;2976;49.764;9.796;2023-05-23T02:07:10;24.90;;;18.13;;
5900;SDS011;2976;49.764;9.796;2023-05-23T02:09:35;28.53;;;18.63;;
5900;SDS011;2976;49.764;9.796;2023-05-23T02:12:01;25.77;;;19.53;;
5900;SDS011;2976;49.764;9.796;2023-05-23T02:14:26;31.77;;;21.00;;
5900;SDS011;2976;49.764;9.796;2023-05-23T02:16:52;29.07;;;21.50;;
5900;SDS011;2976;49.764;9.796;2023-05-23T02:19:18;30.23;;;21.30;;
5900;SDS011;2976;49.764;9.796;2023-05-23T02:21:43;28.53;;;20.40;;
5900;SDS011;2976;49.764;9.796;2023-05-23T02:24:09;22.30;;;18.00;;
5900;SDS011;2976;49.764;9.796;2023-05-23T02:26:35;36.17;;;21.20;;
5900;SDS011;2976;49.764;9.796;2023-05-23T02:29:01;30.37;;;21.00;;
5900;SDS011;2976;49.764;9.796;2023-05-23T02:31:26;31.00;;;21.60;;
5900;SDS011;2976;49.764;9.796;2023-05-23T02:33:52;34.47;;;21.97;;
5900;SDS011;2976;49.764;9.796;2023-05-23T02:36:18;32.40;;;23.10;;
5900;SDS011;2976;49.764;9.796;2023-05-23T02:38:43;29.03;;;20.10;;
5900;SDS011;2976;49.764;9.796;2023-05-23T02:41:09;29.03;;;21.43;;
5900;SDS011;2976;49.764;9.796;2023-05-23T02:43:35;28.93;;;21.30;;
5900;SDS011;2976;49.764;9.796;2023-05-23T02:46:00;30.33;;;22.23;;
5900;SDS011;2976;49.764;9.796;2023-05-23T02:48:26;34.53;;;23.40;;
5900;SDS011;2976;49.764;9.796;2023-05-23T02:50:51;33.73;;;23.10;;
5900;SDS011;2976;49.764;9.796;2023-05-23T02:53:17;33.70;;;22.53;;
5900;SDS011;2976;49.764;9.796;2023-05-23T02:55:42;33.57;;;23.40;;
5900;SDS011;2976;49.764;9.796;2023-05-23T02:58:08;32.90;;;23.63;;
5900;SDS011;2976;49.764;9.796;2023-05-23T03:00:34;37.33;;;24.77;;
5900;SDS011;2976;49.764;9.796;2023-05-23T03:03:00;32.67;;;22.90;;
5900;SDS011;2976;49.764;9.796;2023-05-23T03:05:26;32.30;;;22.53;;
5900;SDS011;2976;49.764;9.796;2023-05-23T03:07:52;30.43;;;21.47;;
5900;SDS011;2976;49.764;9.796;2023-05-23T03:10:18;29.90;;;22.60;;
5900;SDS011;2976;49.764;9.796;2023-05-23T03:12:45;30.10;;;20.63;;
5900;SDS011;2976;49.764;9.796;2023-05-23T03:15:11;26.93;;;19.40;;
5900;SDS011;2976;49.764;9.796;2023-05-23T03:17:36;29.37;;;20.07;;
5900;SDS011;2976;49.764;9.796;2023-05-23T03:20:02;28.63;;;20.87;;
5900;SDS011;2976;49.764;9.796;2023-05-23T03:22:28;28.80;;;20.83;;
5900;SDS011;2976;49.764;9.796;2023-05-23T03:24:54;28.13;;;20.40;;
5900;SDS011;2976;49.764;9.796;2023-05-23T03:27:20;28.13;;;19.40;;
5900;SDS011;2976;49.764;9.796;2023-05-23T03:29:45;31.53;;;19.87;;
5900;SDS011;2976;49.764;9.796;2023-05-23T03:32:12;28.90;;;19.00;;
5900;SDS011;2976;49.764;9.796;2023-05-23T03:34:38;29.90;;;20.80;;
5900;SDS011;2976;49.764;9.796;2023-05-23T03:37:03;27.50;;;20.13;;
5900;SDS011;2976;49.764;9.796;2023-05-23T03:39:29;30.43;;;19.77;;
5900;SDS011;2976;49.764;9.796;2023-05-23T03:41:55;25.83;;;19.37;;
5900;SDS011;2976;49.764;9.796;2023-05-23T03:44:20;30.30;;;20.13;;
5900;SDS011;2976;49.764;9.796;2023-05-23T03:46:46;24.60;;;19.73;;
5900;SDS011;2976;49.764;9.796;2023-05-23T03:49:12;29.67;;;20.20;;
5900;SDS011;2976;49.764;9.796;2023-05-23T03:51:37;33.00;;;21.17;;
5900;SDS011;2976;49.764;9.796;2023-05-23T03:54:03;28.57;;;19.60;;
5900;SDS011;2976;49.764;9.796;2023-05-23T03:56:29;23.70;;;19.03;;
5900;SDS011;2976;49.764;9.796;2023-05-23T03:58:54;30.87;;;20.40;;
5900;SDS011;2976;49.764;9.796;2023-05-23T04:01:20;27.53;;;19.00;;
5900;SDS011;2976;49.764;9.796;2023-05-23T04:03:45;27.80;;;20.13;;
5900;SDS011;2976;49.764;9.796;2023-05-23T04:06:12;29.43;;;19.73;;
5900;SDS011;2976;49.764;9.796;2023-05-23T04:08:37;28.00;;;20.23;;
5900;SDS011;2976;49.764;9.796;2023-05-23T04:11:05;28.60;;;20.00;;
5900;SDS011;2976;49.764;9.796;2023-05-23T04:13:31;23.00;;;18.73;;
5900;SDS011;2976;49.764;9.796;2023-05-23T04:15:58;24.83;;;18.13;;
5900;SDS011;2976;49.764;9.796;2023-05-23T04:18:26;35.90;;;20.37;;
5900;SDS011;2976;49.764;9.796;2023-05-23T04:20:52;26.60;;;19.37;;
5900;SDS011;2976;49.764;9.796;2023-05-23T04:23:18;32.70;;;22.10;;
5900;SDS011;2976;49.764;9.796;2023-05-23T04:25:43;29.73;;;19.70;;
5900;SDS011;2976;49.764;9.796;2023-05-23T04:28:10;25.57;;;18.30;;
5900;SDS011;2976;49.764;9.796;2023-05-23T04:30:36;25.53;;;19.77;;
5900;SDS011;2976;49.764;9.796;2023-05-23T04:33:02;29.23;;;19.33;;
5900;SDS011;2976;49.764;9.796;2023-05-23T04:35:28;34.13;;;19.93;;
5900;SDS011;2976;49.764;9.796;2023-05-23T04:37:56;29.73;;;19.00;;
5900;SDS011;2976;49.764;9.796;2023-05-23T04:40:22;24.40;;;18.17;;
5900;SDS011;2976;49.764;9.796;2023-05-23T04:42:48;20.30;;;16.50;;
5900;SDS011;2976;49.764;9.796;2023-05-23T04:45:15;28.50;;;19.23;;
5900;SDS011;2976;49.764;9.796;2023-05-23T04:47:44;23.53;;;18.77;;
5900;SDS011;2976;49.764;9.796;2023-05-23T04:50:10;24.63;;;18.97;;
5900;SDS011;2976;49.764;9.796;2023-05-23T04:52:36;23.03;;;18.67;;
5900;SDS011;2976;49.764;9.796;2023-05-23T04:55:01;23.37;;;18.50;;
5900;SDS011;2976;49.764;9.796;2023-05-23T04:57:27;28.00;;;19.33;;
5900;SDS011;2976;49.764;9.796;2023-05-23T04:59:53;23.57;;;18.93;;
5900;SDS011;2976;49.764;9.796;2023-05-23T05:02:18;24.93;;;19.47;;
5900;SDS011;2976;49.764;9.796;2023-05-23T05:04:44;22.53;;;18.37;;
5900;SDS011;2976;49.764;9.796;2023-05-23T05:07:09;29.00;;;20.77;;
5900;SDS011;2976;49.764;9.796;2023-05-23T05:09:35;27.27;;;21.20;;
5900;SDS011;2976;49.764;9.796;2023-05-23T05:12:01;27.40;;;21.20;;
5900;SDS011;2976;49.764;9.796;2023-05-23T05:14:26;24.10;;;19.67;;
5900;SDS011;2976;49.764;9.796;2023-05-23T05:16:52;28.10;;;22.57;;
5900;SDS011;2976;49.764;9.796;2023-05-23T05:19:19;27.33;;;20.50;;
5900;SDS011;2976;49.764;9.796;2023-05-23T05:21:45;26.00;;;20.47;;
5900;SDS011;2976;49.764;9.796;2023-05-23T05:24:11;26.70;;;21.50;;
5900;SDS011;2976;49.764;9.796;2023-05-23T05:26:36;26.27;;;21.87;;
5900;SDS011;2976;49.764;9.796;2023-05-23T05:29:02;29.13;;;22.83;;
5900;SDS011;2976;49.764;9.796;2023-05-23T05:31:28;28.77;;;20.37;;
5900;SDS011;2976;49.764;9.796;2023-05-23T05:33:54;30.83;;;21.53;;
5900;SDS011;2976;49.764;9.796;2023-05-23T05:36:20;26.63;;;20.57;;
5900;SDS011;2976;49.764;9.796;2023-05-23T05:38:45;25.70;;;19.73;;
5900;SDS011;2976;49.764;9.796;2023-05-23T05:41:11;21.87;;;17.67;;
5900;SDS011;2976;49.764;9.796;2023-05-23T05:43:37;21.70;;;17.43;;
5900;SDS011;2976;49.764;9.796;2023-05-23T05:46:02;24.23;;;16.43;;
5900;SDS011;2976;49.764;9.796;2023-05-23T05:48:28;19.97;;;16.13;;
5900;SDS011;2976;49.764;9.796;2023-05-23T05:50:54;22.37;;;16.33;;
5900;SDS011;2976;49.764;9.796;2023-05-23T05:53:19;21.73;;;16.27;;
5900;SDS011;2976;49.764;9.796;2023-05-23T05:55:45;17.87;;;13.83;;
5900;SDS011;2976;49.764;9.796;2023-05-23T05:58:10;19.70;;;15.50;;
5900;SDS011;2976;49.764;9.796;2023-05-23T06:00:36;21.57;;;15.40;;
5900;SDS011;2976;49.764;9.796;2023-05-23T06:03:06;19.63;;;15.57;;
5900;SDS011;2976;49.764;9.796;2023-05-23T06:05:32;21.13;;;16.23;;
5900;SDS011;2976;49.764;9.796;2023-05-23T06:07:58;18.03;;;13.10;;
5900;SDS011;2976;49.764;9.796;2023-05-23T06:10:24;15.37;;;11.67;;
5900;SDS011;2976;49.764;9.796;2023-05-23T06:12:49;12.80;;;11.17;;
5900;SDS011;2976;49.764;9.796;2023-05-23T06:15:15;13.47;;;10.60;;
5900;SDS011;2976;49.764;9.796;2023-05-23T06:17:41;13.43;;;10.73;;
5900;SDS011;2976;49.764;9.796;2023-05-23T06:20:08;13.53;;;10.67;;
5900;SDS011;2976;49.764;9.796;2023-05-23T06:22:35;17.07;;;10.43;;
5900;SDS011;2976;49.764;9.796;2023-05-23T06:25:00;13.00;;;10.83;;
5900;SDS011;2976;49.764;9.796;2023-05-23T06:27:26;15.93;;;11.10;;
5900;SDS011;2976;49.764;9.796;2023-05-23T06:29:52;17.10;;;10.43;;
5900;SDS011;2976;49.764;9.796;2023-05-23T06:32:17;14.30;;;9.47;;
5900;SDS011;2976;49.764;9.796;2023-05-23T06:34:43;9.40;;;8.40;;
5900;SDS011;2976;49.764;9.796;2023-05-23T06:37:08;13.73;;;10.27;;
5900;SDS011;2976;49.764;9.796;2023-05-23T06:39:34;10.40;;;9.30;;
5900;SDS011;2976;49.764;9.796;2023-05-23T06:41:59;10.60;;;9.53;;
5900;SDS011;2976;49.764;9.796;2023-05-23T06:44:25;9.60;;;8.13;;
5900;SDS011;2976;49.764;9.796;2023-05-23T06:46:50;12.80;;;9.13;;
5900;SDS011;2976;49.764;9.796;2023-05-23T06:49:21;12.77;;;9.50;;
5900;SDS011;2976;49.764;9.796;2023-05-23T06:51:47;12.60;;;8.40;;
5900;SDS011;2976;49.764;9.796;2023-05-23T06:54:13;10.90;;;7.77;;
5900;SDS011;2976;49.764;9.796;2023-05-23T06:56:39;12.40;;;8.40;;
5900;SDS011;2976;49.764;9.796;2023-05-23T06:59:04;11.63;;;9.30;;
5900;SDS011;2976;49.764;9.796;2023-05-23T07:01:30;11.73;;;9.07;;
5900;SDS011;2976;49.764;9.796;2023-05-23T07:03:55;11.00;;;8.67;;
5900;SDS011;2976;49.764;9.796;2023-05-23T07:06:21;9.87;;;8.47;;
5900;SDS011;2976;49.764;9.796;2023-05-23T07:08:47;8.40;;;7.60;;
5900;SDS011;2976;49.764;9.796;2023-05-23T07:11:12;11.40;;;7.70;;
5900;SDS011;2976;49.764;9.796;2023-05-23T07:13:38;11.40;;;7.60;;
5900;SDS011;2976;49.764;9.796;2023-05-23T07:16:03;10.33;;;7.93;;
5900;SDS011;2976;49.764;9.796;2023-05-23T07:18:29;9.77;;;7.90;;
5900;SDS011;2976;49.764;9.796;2023-05-23T07:20:55;7.97;;;7.17;;
5900;SDS011;2976;49.764;9.796;2023-05-23T07:23:21;7.67;;;6.97;;
5900;SDS011;2976;49.764;9.796;2023-05-23T07:25:50;7.00;;;6.30;;
5900;SDS011;2976;49.764;9.796;2023-05-23T07:28:16;7.37;;;6.53;;
5900;SDS011;2976;49.764;9.796;2023-05-23T07:30:42;6.27;;;5.67;;
5900;SDS011;2976;49.764;9.796;2023-05-23T07:33:07;6.40;;;5.80;;
5900;SDS011;2976;49.764;9.796;2023-05-23T07:35:33;5.80;;;5.30;;
5900;SDS011;2976;49.764;9.796;2023-05-23T07:37:58;6.90;;;4.70;;
5900;SDS011;2976;49.764;9.796;2023-05-23T07:40:24;4.73;;;4.33;;
5900;SDS011;2976;49.764;9.796;2023-05-23T07:42:50;4.80;;;4.40;;
5900;SDS011;2976;49.764;9.796;2023-05-23T07:45:17;9.57;;;4.87;;
5900;SDS011;2976;49.764;9.796;2023-05-23T07:47:42;6.17;;;5.57;;
5900;SDS011;2976;49.764;9.796;2023-05-23T07:50:08;10.43;;;5.10;;
5900;SDS011;2976;49.764;9.796;2023-05-23T07:52:34;4.53;;;4.23;;
5900;SDS011;2976;49.764;9.796;2023-05-23T07:55:00;4.70;;;4.13;;
5900;SDS011;2976;49.764;9.796;2023-05-23T07:57:25;5.27;;;4.20;;
5900;SDS011;2976;49.764;9.796;2023-05-23T07:59:51;4.53;;;4.13;;
5900;SDS011;2976;49.764;9.796;2023-05-23T08:02:18;4.43;;;4.10;;
5900;SDS011;2976;49.764;9.796;2023-05-23T08:04:44;8.73;;;4.47;;
5900;SDS011;2976;49.764;9.796;2023-05-23T08:07:10;9.13;;;4.50;;
5900;SDS011;2976;49.764;9.796;2023-05-23T08:09:37;4.37;;;3.53;;
5900;SDS011;2976;49.764;9.796;2023-05-23T08:12:04;3.60;;;3.30;;
5900;SDS011;2976;49.764;9.796;2023-05-23T08:14:30;3.50;;;3.20;;
5900;SDS011;2976;49.764;9.796;2023-05-23T08:16:55;3.60;;;3.30;;
5900;SDS011;2976;49.764;9.796;2023-05-23T08:19:21;5.93;;;3.63;;
5900;SDS011;2976;49.764;9.796;2023-05-23T08:21:47;2.97;;;2.77;;
5900;SDS011;2976;49.764;9.796;2023-05-23T08:24:12;3.83;;;3.53;;
5900;SDS011;2976;49.764;9.796;2023-05-23T08:26:38;4.53;;;3.60;;
5900;SDS011;2976;49.764;9.796;2023-05-23T08:29:04;3.17;;;2.97;;
5900;SDS011;2976;49.764;9.796;2023-05-23T08:31:30;3.07;;;2.87;;
5900;SDS011;2976;49.764;9.796;2023-05-23T08:33:56;4.23;;;3.03;;
5900;SDS011;2976;49.764;9.796;2023-05-23T08:36:23;2.70;;;2.60;;
5900;SDS011;2976;49.764;9.796;2023-05-23T08:38:48;3.13;;;2.93;;
5900;SDS011;2976;49.764;9.796;2023-05-23T08:41:17;4.40;;;3.00;;
5900;SDS011;2976;49.764;9.796;2023-05-23T08:43:44;3.30;;;3.00;;
5900;SDS011;2976;49.764;9.796;2023-05-23T08:46:11;2.80;;;2.60;;
5900;SDS011;2976;49.764;9.796;2023-05-23T08:48:37;3.93;;;2.83;;
5900;SDS011;2976;49.764;9.796;2023-05-23T08:51:03;2.73;;;2.53;;
5900;SDS011;2976;49.764;9.796;2023-05-23T08:53:29;2.87;;;2.67;;
5900;SDS011;2976;49.764;9.796;2023-05-23T08:55:56;2.67;;;2.47;;
5900;SDS011;2976;49.764;9.796;2023-05-23T08:58:26;3.47;;;2.40;;
5900;SDS011;2976;49.764;9.796;2023-05-23T09:00:54;2.90;;;2.40;;
5900;SDS011;2976;49.764;9.796;2023-05-23T09:03:20;2.50;;;2.40;;
5900;SDS011;2976;49.764;9.796;2023-05-23T09:05:47;4.80;;;2.50;;
5900;SDS011;2976;49.764;9.796;2023-05-23T09:08:14;8.83;;;3.10;;
5900;SDS011;2976;49.764;9.796;2023-05-23T09:10:41;2.63;;;2.43;;
5900;SDS011;2976;49.764;9.796;2023-05-23T09:13:06;2.67;;;2.47;;
5900;SDS011;2976;49.764;9.796;2023-05-23T09:15:33;2.70;;;1.80;;
5900;SDS011;2976;49.764;9.796;2023-05-23T09:17:59;2.10;;;2.00;;
5900;SDS011;2976;49.764;9.796;2023-05-23T09:20:26;2.07;;;1.97;;
5900;SDS011;2976;49.764;9.796;2023-05-23T09:22:53;2.50;;;2.30;;
5900;SDS011;2976;49.764;9.796;2023-05-23T09:25:19;2.33;;;1.93;;
5900;SDS011;2976;49.764;9.796;2023-05-23T09:27:45;5.80;;;2.33;;
5900;SDS011;2976;49.764;9.796;2023-05-23T09:30:11;2.30;;;2.20;;
5900;SDS011;2976;49.764;9.796;2023-05-23T09:32:37;6.23;;;2.83;;
5900;SDS011;2976;49.764;9.796;2023-05-23T09:35:04;2.70;;;2.50;;
5900;SDS011;2976;49.764;9.796;2023-05-23T09:37:35;3.17;;;2.63;;
5900;SDS011;2976;49.764;9.796;2023-05-23T09:40:05;2.60;;;2.40;;
5900;SDS011;2976;49.764;9.796;2023-05-23T09:42:34;3.33;;;2.50;;
5900;SDS011;2976;49.764;9.796;2023-05-23T09:45:00;3.30;;;3.10;;
5900;SDS011;2976;49.764;9.796;2023-05-23T09:47:26;8.90;;;3.03;;
5900;SDS011;2976;49.764;9.796;2023-05-23T09:49:52;2.80;;;2.60;;
5900;SDS011;2976;49.764;9.796;2023-05-23T09:52:18;2.73;;;2.50;;
5900;SDS011;2976;49.764;9.796;2023-05-23T09:54:46;2.87;;;2.67;;
5900;SDS011;2976;49.764;9.796;2023-05-23T09:57:13;3.20;;;2.43;;
5900;SDS011;2976;49.764;9.796;2023-05-23T09:59:40;3.00;;;2.70;;
5900;SDS011;2976;49.764;9.796;2023-05-23T10:02:10;3.13;;;2.83;;
5900;SDS011;2976;49.764;9.796;2023-05-23T10:04:37;2.30;;;2.20;;
5900;SDS011;2976;49.764;9.796;2023-05-23T10:09:41;2.53;;;2.33;;
5900;SDS011;2976;49.764;9.796;2023-05-23T10:14:50;2.80;;;2.60;;
5900;SDS011;2976;49.764;9.796;2023-05-23T10:17:20;2.60;;;2.40;;
5900;SDS011;2976;49.764;9.796;2023-05-23T10:20:01;5.03;;;2.93;;
5900;SDS011;2976;49.764;9.796;2023-05-23T10:22:32;2.47;;;2.37;;
5900;SDS011;2976;49.764;9.796;2023-05-23T10:25:02;3.27;;;2.30;;
5900;SDS011;2976;49.764;9.796;2023-05-23T10:27:29;2.83;;;2.20;;
5900;SDS011;2976;49.764;9.796;2023-05-23T10:29:55;2.20;;;2.00;;
5900;SDS011;2976;49.764;9.796;2023-05-23T10:32:22;2.10;;;2.00;;
5900;SDS011;2976;49.764;9.796;2023-05-23T10:37:20;2.90;;;2.27;;
5900;SDS011;2976;49.764;9.796;2023-05-23T10:42:55;3.50;;;2.30;;
5900;SDS011;2976;49.764;9.796;2023-05-23T10:45:50;1.83;;;1.73;;
5900;SDS011;2976;49.764;9.796;2023-05-23T10:48:19;2.57;;;2.30;;
5900;SDS011;2976;49.764;9.796;2023-05-23T10:51:08;2.83;;;2.10;;
5900;SDS011;2976;49.764;9.796;2023-05-23T10:53:36;7.30;;;2.27;;
5900;SDS011;2976;49.764;9.796;2023-05-23T10:56:04;2.13;;;1.93;;
5900;SDS011;2976;49.764;9.796;2023-05-23T10:58:31;1.93;;;1.83;;
5900;SDS011;2976;49.764;9.796;2023-05-23T11:01:04;1.90;;;1.80;;
5900;SDS011;2976;49.764;9.796;2023-05-23T11:03:32;2.03;;;1.93;;
5900;SDS011;2976;49.764;9.796;2023-05-23T11:06:09;1.90;;;1.80;;
5900;SDS011;2976;49.764;9.796;2023-05-23T11:09:00;2.37;;;2.23;;
5900;SDS011;2976;49.764;9.796;2023-05-23T11:11:50;2.00;;;1.90;;
5900;SDS011;2976;49.764;9.796;2023-05-23T11:14:13;2.30;;;2.10;;
5900;SDS011;2976;49.764;9.796;2023-05-23T11:16:39;2.47;;;2.37;;
5900;SDS011;2976;49.764;9.796;2023-05-23T11:21:44;1.70;;;1.60;;
5900;SDS011;2976;49.764;9.796;2023-05-23T11:24:10;2.20;;;2.10;;
5900;SDS011;2976;49.764;9.796;2023-05-23T11:26:36;5.50;;;2.40;;
5900;SDS011;2976;49.764;9.796;2023-05-23T11:29:02;2.00;;;1.90;;
5900;SDS011;2976;49.764;9.796;2023-05-23T11:31:36;2.33;;;2.13;;
5900;SDS011;2976;49.764;9.796;2023-05-23T11:34:02;2.20;;;2.10;;
5900;SDS011;2976;49.764;9.796;2023-05-23T11:36:28;4.83;;;2.27;;
5900;SDS011;2976;49.764;9.796;2023-05-23T11:38:55;3.10;;;2.40;;
5900;SDS011;2976;49.764;9.796;2023-05-23T11:41:21;2.47;;;2.27;;
5900;SDS011;2976;49.764;9.796;2023-05-23T11:43:50;2.70;;;2.50;;
5900;SDS011;2976;49.764;9.796;2023-05-23T11:46:16;2.07;;;1.97;;
5900;SDS011;2976;49.764;9.796;2023-05-23T11:48:45;2.33;;;2.13;;
5900;SDS011;2976;49.764;9.796;2023-05-23T11:51:12;1.90;;;1.80;;
5900;SDS011;2976;49.764;9.796;2023-05-23T11:53:40;2.00;;;1.90;;
5900;SDS011;2976;49.764;9.796;2023-05-23T11:56:06;5.33;;;1.90;;
5900;SDS011;2976;49.764;9.796;2023-05-23T11:58:35;4.60;;;2.10;;
5900;SDS011;2976;49.764;9.796;2023-05-23T12:03:33;2.40;;;2.30;;
5900;SDS011;2976;49.764;9.796;2023-05-23T12:06:08;2.80;;;2.60;;
5900;SDS011;2976;49.764;9.796;2023-05-23T12:08:33;1.70;;;1.60;;
5900;SDS011;2976;49.764;9.796;2023-05-23T12:10:59;2.73;;;2.53;;
5900;SDS011;2976;49.764;9.796;2023-05-23T12:13:27;2.93;;;2.73;;
5900;SDS011;2976;49.764;9.796;2023-05-23T12:15:54;3.03;;;2.77;;
5900;SDS011;2976;49.764;9.796;2023-05-23T12:18:20;2.90;;;2.70;;
5900;SDS011;2976;49.764;9.796;2023-05-23T12:20:49;3.53;;;2.70;;
5900;SDS011;2976;49.764;9.796;2023-05-23T12:23:21;2.87;;;2.67;;
5900;SDS011;2976;49.764;9.796;2023-05-23T12:25:53;3.90;;;3.60;;
5900;SDS011;2976;49.764;9.796;2023-05-23T12:28:20;4.73;;;3.43;;
5900;SDS011;2976;49.764;9.796;2023-05-23T12:30:58;3.43;;;3.13;;
5900;SDS011;2976;49.764;9.796;2023-05-23T12:33:23;3.20;;;2.97;;
5900;SDS011;2976;49.764;9.796;2023-05-23T12:35:49;3.30;;;3.10;;
5900;SDS011;2976;49.764;9.796;2023-05-23T12:38:15;3.57;;;3.27;;
5900;SDS011;2976;49.764;9.796;2023-05-23T12:40:41;5.90;;;3.70;;
5900;SDS011;2976;49.764;9.796;2023-05-23T12:43:08;4.60;;;4.20;;
5900;SDS011;2976;49.764;9.796;2023-05-23T12:45:35;3.33;;;3.03;;
5900;SDS011;2976;49.764;9.796;2023-05-23T12:48:01;3.90;;;3.40;;
5900;SDS011;2976;49.764;9.796;2023-05-23T12:50:27;3.67;;;3.47;;
5900;SDS011;2976;49.764;9.796;2023-05-23T12:52:53;3.70;;;3.40;;
5900;SDS011;2976;49.764;9.796;2023-05-23T12:55:19;3.40;;;3.20;;
5900;SDS011;2976;49.764;9.796;2023-05-23T12:57:45;3.00;;;2.80;;
5900;SDS011;2976;49.764;9.796;2023-05-23T13:00:11;3.23;;;2.90;;
5900;SDS011;2976;49.764;9.796;2023-05-23T13:02:37;2.90;;;2.70;;
5900;SDS011;2976;49.764;9.796;2023-05-23T13:05:03;3.23;;;2.93;;
5900;SDS011;2976;49.764;9.796;2023-05-23T13:07:29;2.20;;;2.10;;
5900;SDS011;2976;49.764;9.796;2023-05-23T13:09:55;2.50;;;2.30;;
5900;SDS011;2976;49.764;9.796;2023-05-23T13:12:21;2.67;;;2.47;;
5900;SDS011;2976;49.764;9.796;2023-05-23T13:14:47;2.37;;;2.27;;
5900;SDS011;2976;49.764;9.796;2023-05-23T13:17:13;2.93;;;2.00;;
5900;SDS011;2976;49.764;9.796;2023-05-23T13:19:39;2.60;;;2.20;;
5900;SDS011;2976;49.764;9.796;2023-05-23T13:22:05;2.23;;;2.00;;
5900;SDS011;2976;49.764;9.796;2023-05-23T13:24:34;2.67;;;2.40;;
5900;SDS011;2976;49.764;9.796;2023-05-23T13:27:01;3.70;;;2.03;;
5900;SDS011;2976;49.764;9.796;2023-05-23T13:29:27;2.67;;;1.97;;
5900;SDS011;2976;49.764;9.796;2023-05-23T13:31:53;1.47;;;1.43;;
5900;SDS011;2976;49.764;9.796;2023-05-23T13:34:18;2.20;;;1.93;;
5900;SDS011;2976;49.764;9.796;2023-05-23T13:36:44;1.57;;;1.47;;
5900;SDS011;2976;49.764;9.796;2023-05-23T13:39:09;1.30;;;1.30;;
5900;SDS011;2976;49.764;9.796;2023-05-23T13:41:35;2.40;;;1.40;;
5900;SDS011;2976;49.764;9.796;2023-05-23T13:44:00;2.37;;;1.77;;
5900;SDS011;2976;49.764;9.796;2023-05-23T13:46:26;2.40;;;1.60;;
5900;SDS011;2976;49.764;9.796;2023-05-23T13:48:51;2.77;;;1.70;;
5900;SDS011;2976;49.764;9.796;2023-05-23T13:51:17;4.33;;;2.30;;
5900;SDS011;2976;49.764;9.796;2023-05-23T13:53:42;1.97;;;1.80;;
5900;SDS011;2976;49.764;9.796;2023-05-23T13:56:08;2.23;;;1.70;;
5900;SDS011;2976;49.764;9.796;2023-05-23T13:58:34;1.80;;;1.53;;
5900;SDS011;2976;49.764;9.796;2023-05-23T14:01:00;2.20;;;1.40;;
5900;SDS011;2976;49.764;9.796;2023-05-23T14:03:26;4.93;;;1.63;;
5900;SDS011;2976;49.764;9.796;2023-05-23T14:05:52;1.50;;;1.40;;
5900;SDS011;2976;49.764;9.796;2023-05-23T14:08:17;1.80;;;1.70;;
5900;SDS011;2976;49.764;9.796;2023-05-23T14:10:43;1.47;;;1.37;;
5900;SDS011;2976;49.764;9.796;2023-05-23T14:13:09;4.87;;;1.20;;
5900;SDS011;2976;49.764;9.796;2023-05-23T14:15:35;1.40;;;1.40;;
5900;SDS011;2976;49.764;9.796;2023-05-23T14:18:02;1.43;;;1.33;;
5900;SDS011;2976;49.764;9.796;2023-05-23T14:20:28;1.10;;;1.10;;
5900;SDS011;2976;49.764;9.796;2023-05-23T14:22:54;1.70;;;1.60;;
5900;SDS011;2976;49.764;9.796;2023-05-23T14:25:19;1.60;;;1.50;;
5900;SDS011;2976;49.764;9.796;2023-05-23T14:27:45;2.70;;;1.60;;
5900;SDS011;2976;49.764;9.796;2023-05-23T14:30:11;1.30;;;1.30;;
5900;SDS011;2976;49.764;9.796;2023-05-23T14:32:37;1.40;;;1.30;;
5900;SDS011;2976;49.764;9.796;2023-05-23T14:35:04;1.10;;;1.00;;
5900;SDS011;2976;49.764;9.796;2023-05-23T14:37:30;2.03;;;1.60;;
5900;SDS011;2976;49.764;9.796;2023-05-23T14:39:55;1.70;;;1.60;;
5900;SDS011;2976;49.764;9.796;2023-05-23T14:42:21;1.60;;;1.50;;
5900;SDS011;2976;49.764;9.796;2023-05-23T14:44:46;1.80;;;1.70;;
5900;SDS011;2976;49.764;9.796;2023-05-23T14:47:12;1.70;;;1.60;;
5900;SDS011;2976;49.764;9.796;2023-05-23T14:49:37;1.70;;;1.60;;
5900;SDS011;2976;49.764;9.796;2023-05-23T14:52:03;1.50;;;1.50;;
5900;SDS011;2976;49.764;9.796;2023-05-23T14:54:29;1.77;;;1.67;;
5900;SDS011;2976;49.764;9.796;2023-05-23T14:56:54;3.03;;;1.47;;
5900;SDS011;2976;49.764;9.796;2023-05-23T14:59:20;1.80;;;1.70;;
5900;SDS011;2976;49.764;9.796;2023-05-23T15:01:46;3.67;;;2.00;;
5900;SDS011;2976;49.764;9.796;2023-05-23T15:04:12;3.93;;;1.40;;
5900;SDS011;2976;49.764;9.796;2023-05-23T15:06:38;1.30;;;1.30;;
5900;SDS011;2976;49.764;9.796;2023-05-23T15:09:04;1.37;;;1.37;;
5900;SDS011;2976;49.764;9.796;2023-05-23T15:11:30;1.57;;;1.57;;
5900;SDS011;2976;49.764;9.796;2023-05-23T15:13:56;2.90;;;1.90;;
5900;SDS011;2976;49.764;9.796;2023-05-23T15:16:21;1.50;;;1.40;;
5900;SDS011;2976;49.764;9.796;2023-05-23T15:18:47;1.30;;;1.30;;